createdAt,value
2019-06-26T00:00:18.197Z,41.80
2019-06-26T00:02:46.342Z,41.70
2019-06-26T00:05:13.632Z,41.20
2019-06-26T00:07:40.546Z,41.70
2019-06-26T00:10:08.095Z,41.10
2019-06-26T00:12:35.004Z,41.10
2019-06-26T00:15:04.510Z,41.20
2019-06-26T00:17:31.601Z,40.80
2019-06-26T00:19:58.706Z,40.40
2019-06-26T00:22:25.669Z,40.60
2019-06-26T00:24:52.949Z,40.10
2019-06-26T00:27:20.143Z,40.00
2019-06-26T00:29:47.135Z,39.90
2019-06-26T00:32:13.970Z,39.70
2019-06-26T00:34:40.889Z,40.40
2019-06-26T00:37:08.014Z,40.20
2019-06-26T00:39:34.832Z,40.60
2019-06-26T00:42:01.946Z,40.50
2019-06-26T00:44:29.014Z,40.80
2019-06-26T00:46:56.797Z,41.80
2019-06-26T00:49:23.664Z,43.40
2019-06-26T00:51:50.496Z,44.20
2019-06-26T00:54:17.630Z,44.50
2019-06-26T00:56:44.584Z,44.30
2019-06-26T00:59:11.563Z,44.30
2019-06-26T01:01:38.512Z,45.80
2019-06-26T01:04:10.021Z,43.70
2019-06-26T01:06:43.194Z,44.10
2019-06-26T01:09:14.383Z,46.70
2019-06-26T01:11:44.348Z,46.50
2019-06-26T01:14:11.371Z,46.30
2019-06-26T01:16:38.719Z,45.30
2019-06-26T01:19:05.547Z,46.80
2019-06-26T01:21:32.795Z,46.40
2019-06-26T01:23:59.763Z,47.60
2019-06-26T01:26:27.134Z,47.60
2019-06-26T01:28:54.698Z,47.90
2019-06-26T01:31:21.672Z,48.50
2019-06-26T01:33:48.527Z,48.90
2019-06-26T01:36:15.478Z,49.00
2019-06-26T01:38:42.957Z,49.20
2019-06-26T01:41:09.792Z,49.40
2019-06-26T01:43:36.781Z,50.20
2019-06-26T01:46:03.620Z,50.40
2019-06-26T01:48:30.513Z,50.70
2019-06-26T01:50:57.648Z,50.90
2019-06-26T01:53:24.824Z,50.60
2019-06-26T01:55:51.797Z,50.90
2019-06-26T01:58:18.713Z,50.70
2019-06-26T02:00:45.924Z,50.60
2019-06-26T02:03:12.867Z,51.20
2019-06-26T02:05:39.697Z,50.00
2019-06-26T02:08:06.573Z,49.70
2019-06-26T02:10:33.401Z,50.40
2019-06-26T02:13:00.224Z,50.80
2019-06-26T02:15:28.014Z,52.00
2019-06-26T02:17:54.988Z,53.10
2019-06-26T02:20:21.904Z,53.30
2019-06-26T02:22:49.737Z,54.50
2019-06-26T02:25:17.243Z,55.10
2019-06-26T02:27:44.715Z,55.90
2019-06-26T02:30:12.048Z,56.20
2019-06-26T02:32:38.876Z,57.50
2019-06-26T02:35:09.647Z,57.90
2019-06-26T02:37:35.964Z,57.40
2019-06-26T02:40:08.031Z,58.70
2019-06-26T02:42:35.464Z,58.20
2019-06-26T02:45:04.235Z,58.30
2019-06-26T02:47:31.357Z,59.30
2019-06-26T02:49:58.264Z,59.40
2019-06-26T02:52:25.108Z,59.30
2019-06-26T02:54:52.256Z,59.40
2019-06-26T02:57:19.401Z,60.30
2019-06-26T02:59:46.341Z,59.70
2019-06-26T03:02:13.198Z,60.50
2019-06-26T03:04:40.038Z,60.10
2019-06-26T03:07:06.918Z,61.20
2019-06-26T03:09:33.917Z,61.70
2019-06-26T03:12:00.850Z,61.60
2019-06-26T03:14:27.759Z,62.00
2019-06-26T03:16:54.904Z,62.40
2019-06-26T03:19:21.751Z,62.50
2019-06-26T03:21:48.886Z,62.80
2019-06-26T03:24:15.714Z,62.90
2019-06-26T03:26:42.880Z,63.30
2019-06-26T03:29:09.846Z,63.40
2019-06-26T03:31:36.670Z,63.90
2019-06-26T03:34:03.607Z,64.20
2019-06-26T03:36:30.475Z,64.80
2019-06-26T03:38:57.346Z,64.80
2019-06-26T03:41:24.289Z,65.20
2019-06-26T03:43:51.996Z,65.50
2019-06-26T03:46:18.869Z,65.80
2019-06-26T03:48:45.758Z,66.80
2019-06-26T03:51:14.185Z,66.70
2019-06-26T03:53:41.167Z,66.80
2019-06-26T03:56:08.397Z,67.40
2019-06-26T03:58:35.295Z,68.20
2019-06-26T04:01:02.144Z,68.60
2019-06-26T04:03:29.148Z,69.00
2019-06-26T04:05:56.163Z,69.40
2019-06-26T04:08:23.034Z,69.50
2019-06-26T04:10:50.232Z,70.00
2019-06-26T04:13:17.157Z,70.10
2019-06-26T04:15:45.031Z,70.80
2019-06-26T04:18:11.861Z,71.60
2019-06-26T04:20:39.028Z,72.30
2019-06-26T04:23:05.853Z,72.00
2019-06-26T04:25:32.716Z,72.80
2019-06-26T04:27:59.616Z,72.90
2019-06-26T04:30:27.041Z,73.30
2019-06-26T04:32:53.893Z,73.30
2019-06-26T04:35:21.120Z,73.30
2019-06-26T04:37:48.174Z,73.20
2019-06-26T04:40:15.702Z,73.50
2019-06-26T04:42:43.536Z,73.50
2019-06-26T04:45:11.275Z,73.00
2019-06-26T04:47:38.374Z,73.40
2019-06-26T04:50:07.048Z,73.30
2019-06-26T04:52:34.220Z,73.50
2019-06-26T04:55:01.055Z,73.80
2019-06-26T04:57:28.089Z,73.50
2019-06-26T04:59:54.934Z,73.40
2019-06-26T05:02:21.797Z,73.80
2019-06-26T05:04:48.862Z,73.80
2019-06-26T05:07:15.713Z,74.40
2019-06-26T05:09:43.293Z,74.90
2019-06-26T05:12:10.136Z,78.50
2019-06-26T05:14:36.997Z,77.00
2019-06-26T05:17:04.158Z,77.00
2019-06-26T05:19:31.001Z,77.30
2019-06-26T05:21:57.875Z,77.20
2019-06-26T05:24:25.097Z,77.70
2019-06-26T05:26:52.105Z,77.70
2019-06-26T05:29:18.949Z,78.10
2019-06-26T05:31:45.811Z,78.70
2019-06-26T05:34:12.686Z,78.90
2019-06-26T05:36:40.199Z,79.10
2019-06-26T05:39:07.240Z,78.00
2019-06-26T05:41:34.844Z,77.10
2019-06-26T05:44:03.737Z,77.20
2019-06-26T05:46:31.793Z,77.20
2019-06-26T05:48:59.224Z,77.00
2019-06-26T05:51:26.060Z,76.50
2019-06-26T05:53:52.950Z,76.00
2019-06-26T05:56:20.034Z,75.90
2019-06-26T05:58:46.950Z,75.50
2019-06-26T06:01:13.882Z,75.20
2019-06-26T06:03:40.858Z,75.50
2019-06-26T06:06:07.806Z,75.50
2019-06-26T06:08:34.936Z,75.10
2019-06-26T06:11:01.916Z,75.70
2019-06-26T06:13:29.250Z,76.10
2019-06-26T06:15:56.095Z,75.90
2019-06-26T06:18:23.114Z,75.40
2019-06-26T06:20:50.000Z,75.30
2019-06-26T06:23:16.829Z,74.20
2019-06-26T06:25:43.749Z,73.30
2019-06-26T06:28:10.570Z,73.30
2019-06-26T06:30:37.407Z,74.40
2019-06-26T06:33:04.659Z,75.90
2019-06-26T06:35:31.505Z,75.50
2019-06-26T06:37:58.335Z,73.70
2019-06-26T06:40:26.023Z,75.10
2019-06-26T06:42:52.863Z,75.00
2019-06-26T06:45:20.448Z,74.40
2019-06-26T06:47:47.323Z,75.40
2019-06-26T06:50:14.830Z,75.10
2019-06-26T06:52:42.651Z,74.10
2019-06-26T06:55:10.179Z,74.80
2019-06-26T06:57:37.350Z,75.20
2019-06-26T07:00:07.921Z,74.90
2019-06-26T07:02:35.377Z,75.40
2019-06-26T07:05:05.553Z,74.50
2019-06-26T07:07:32.395Z,74.10
2019-06-26T07:09:59.392Z,73.40
2019-06-26T07:12:26.424Z,73.40
2019-06-26T07:14:53.692Z,73.30
2019-06-26T07:17:21.570Z,73.40
2019-06-26T07:19:48.749Z,73.20
2019-06-26T07:22:15.726Z,72.70
2019-06-26T07:24:43.093Z,72.90
2019-06-26T07:27:10.105Z,72.70
2019-06-26T07:29:36.968Z,72.30
2019-06-26T07:32:04.171Z,72.60
2019-06-26T07:34:31.082Z,72.40
2019-06-26T07:36:57.919Z,72.00
2019-06-26T07:39:25.207Z,72.50
2019-06-26T07:41:52.275Z,71.20
2019-06-26T07:44:19.140Z,71.00
2019-06-26T07:46:46.194Z,71.20
2019-06-26T07:49:13.022Z,71.20
2019-06-26T07:51:40.122Z,71.10
2019-06-26T07:54:07.328Z,70.70
2019-06-26T07:56:34.399Z,70.20
2019-06-26T07:59:01.412Z,69.90
2019-06-26T08:01:29.540Z,69.70
2019-06-26T08:03:56.426Z,69.40
2019-06-26T08:06:23.380Z,69.50
2019-06-26T08:08:50.998Z,69.00
2019-06-26T08:11:18.011Z,68.70
2019-06-26T08:13:45.053Z,68.30
2019-06-26T08:16:12.162Z,67.90
2019-06-26T08:18:38.992Z,68.30
2019-06-26T08:21:12.641Z,67.50
2019-06-26T08:23:35.436Z,66.90
2019-06-26T08:26:02.672Z,66.00
2019-06-26T08:28:29.597Z,66.10
2019-06-26T08:30:56.706Z,65.80
2019-06-26T08:33:23.665Z,65.20
2019-06-26T08:35:50.817Z,63.10
2019-06-26T08:38:17.930Z,62.50
2019-06-26T08:40:45.089Z,60.70
2019-06-26T08:43:11.907Z,59.50
2019-06-26T08:45:38.994Z,59.10
2019-06-26T08:48:17.316Z,58.70
2019-06-26T08:50:34.963Z,57.80
2019-06-26T08:53:02.438Z,57.90
2019-06-26T08:55:29.616Z,57.70
2019-06-26T08:57:56.519Z,56.90
2019-06-26T09:00:23.990Z,57.20
2019-06-26T09:02:50.823Z,57.60
2019-06-26T09:05:18.564Z,57.30
2019-06-26T09:07:45.769Z,56.60
2019-06-26T09:10:13.122Z,56.00
2019-06-26T09:12:41.143Z,56.70
2019-06-26T09:15:08.693Z,55.90
2019-06-26T09:17:35.844Z,55.80
2019-06-26T09:20:04.900Z,55.90
2019-06-26T09:22:31.840Z,56.00
2019-06-26T09:24:58.695Z,56.30
2019-06-26T09:27:25.628Z,56.20
2019-06-26T09:29:53.153Z,56.00
2019-06-26T09:32:20.136Z,56.20
2019-06-26T09:34:47.008Z,55.90
2019-06-26T09:37:13.947Z,55.30
2019-06-26T09:39:41.889Z,55.40
2019-06-26T09:42:08.718Z,55.50
2019-06-26T09:44:35.750Z,55.40
2019-06-26T09:47:02.574Z,55.20
2019-06-26T09:49:29.417Z,55.10
2019-06-26T09:51:56.417Z,52.00
2019-06-26T09:54:23.265Z,53.10
2019-06-26T09:56:50.128Z,53.10
2019-06-26T09:59:17.032Z,52.70
2019-06-26T10:01:44.251Z,53.00
2019-06-26T10:04:11.601Z,53.70
2019-06-26T10:06:38.628Z,54.00
2019-06-26T10:09:07.284Z,53.90
2019-06-26T10:11:34.309Z,53.40
2019-06-26T10:14:01.458Z,50.90
2019-06-26T10:16:28.296Z,51.50
2019-06-26T10:19:08.824Z,51.50
2019-06-26T10:21:23.946Z,51.30
2019-06-26T10:23:50.973Z,50.90
2019-06-26T10:26:18.169Z,51.40
2019-06-26T10:28:45.067Z,51.70
2019-06-26T10:31:12.272Z,51.80
2019-06-26T10:33:40.181Z,51.90
2019-06-26T10:36:07.651Z,52.00
2019-06-26T10:38:34.487Z,51.80
2019-06-26T10:41:01.779Z,50.90
2019-06-26T10:43:28.621Z,50.10
2019-06-26T10:45:55.456Z,49.60
2019-06-26T10:48:23.104Z,50.30
2019-06-26T10:50:57.918Z,50.40
2019-06-26T10:53:18.747Z,50.30
2019-06-26T10:55:45.602Z,47.40
2019-06-26T10:58:12.473Z,47.70
2019-06-26T11:00:40.630Z,47.20
2019-06-26T11:03:07.580Z,46.50
2019-06-26T11:05:34.818Z,45.60
2019-06-26T11:08:01.900Z,46.50
2019-06-26T11:10:29.099Z,46.20
2019-06-26T11:12:56.115Z,46.70
2019-06-26T11:15:24.083Z,46.90
2019-06-26T11:17:51.103Z,47.10
2019-06-26T11:20:18.515Z,47.40
2019-06-26T11:22:45.370Z,46.20
2019-06-26T11:25:12.815Z,45.60
2019-06-26T11:27:41.023Z,45.50
2019-06-26T11:30:10.258Z,45.00
2019-06-26T11:32:37.920Z,44.60
2019-06-26T11:35:06.848Z,45.10
2019-06-26T11:37:33.818Z,45.80
2019-06-26T11:40:00.644Z,46.20
2019-06-26T11:42:28.150Z,45.00
2019-06-26T11:44:55.190Z,42.60
2019-06-26T11:47:22.614Z,41.90
2019-06-26T11:49:59.417Z,41.50
2019-06-26T11:52:18.679Z,42.50
2019-06-26T11:54:58.286Z,43.00
2019-06-26T11:57:14.715Z,43.50
2019-06-26T11:59:41.647Z,43.00
2019-06-26T12:02:08.629Z,43.30
2019-06-26T12:04:35.570Z,43.40
2019-06-26T12:07:03.633Z,42.70
2019-06-26T12:09:30.462Z,41.80
2019-06-26T12:11:57.907Z,41.20
2019-06-26T12:14:24.749Z,40.30
2019-06-26T12:16:51.742Z,40.00
2019-06-26T12:19:22.487Z,40.20
2019-06-26T12:21:48.095Z,40.00
2019-06-26T12:24:15.098Z,39.30
2019-06-26T12:26:42.337Z,39.50
2019-06-26T12:29:09.173Z,39.90
2019-06-26T12:31:36.009Z,40.40
2019-06-26T12:34:03.786Z,40.20
2019-06-26T12:36:30.617Z,39.50
2019-06-26T12:38:57.849Z,39.70
2019-06-26T12:41:24.682Z,39.20
2019-06-26T12:43:51.568Z,38.70
2019-06-26T12:46:18.695Z,39.80
2019-06-26T12:48:45.555Z,38.40
2019-06-26T12:51:12.805Z,38.50
2019-06-26T12:53:39.833Z,37.90
2019-06-26T12:56:07.815Z,38.20
2019-06-26T12:58:34.861Z,38.60
2019-06-26T13:01:01.774Z,38.50
2019-06-26T13:03:28.736Z,38.60
2019-06-26T13:05:55.588Z,39.40
2019-06-26T13:08:22.789Z,39.30
2019-06-26T13:10:50.623Z,39.00
2019-06-26T13:13:18.182Z,38.60
2019-06-26T13:15:45.023Z,37.60
2019-06-26T13:18:12.296Z,38.80
2019-06-26T13:20:52.159Z,38.00
2019-06-26T13:23:09.113Z,37.60
2019-06-26T13:25:35.992Z,37.80
2019-06-26T13:28:03.367Z,37.80
2019-06-26T13:30:53.299Z,35.50
2019-06-26T13:33:20.457Z,36.10
2019-06-26T13:36:00.495Z,36.90
2019-06-26T13:38:27.433Z,36.10
2019-06-26T13:40:54.653Z,35.60
2019-06-26T13:43:22.076Z,35.80
2019-06-26T13:45:49.099Z,36.50
2019-06-26T13:48:15.960Z,34.90
2019-06-26T13:50:42.963Z,35.90
2019-06-26T13:53:09.807Z,35.30
2019-06-26T13:55:36.951Z,35.70
2019-06-26T13:58:04.170Z,35.20
2019-06-26T14:00:31.016Z,35.70
2019-06-26T14:02:58.189Z,36.20
2019-06-26T14:05:25.093Z,35.90
2019-06-26T14:07:51.919Z,35.70
2019-06-26T14:10:19.250Z,35.30
2019-06-26T14:12:46.456Z,34.50
2019-06-26T14:15:14.581Z,35.00
2019-06-26T14:17:41.554Z,34.90
2019-06-26T14:20:09.977Z,35.20
2019-06-26T14:22:37.945Z,35.20
2019-06-26T14:25:07.313Z,35.00
2019-06-26T14:27:34.334Z,34.40
2019-06-26T14:30:01.179Z,34.40
2019-06-26T14:32:28.391Z,33.90
2019-06-26T14:34:55.223Z,34.20
2019-06-26T14:37:22.049Z,33.20
2019-06-26T14:39:48.926Z,33.20
2019-06-26T14:42:15.912Z,33.90
2019-06-26T14:44:42.886Z,33.30
2019-06-26T14:47:09.795Z,33.90
2019-06-26T14:49:38.090Z,34.10
2019-06-26T14:52:05.037Z,33.30
2019-06-26T14:54:32.158Z,33.00
2019-06-26T14:56:59.087Z,32.80
2019-06-26T14:59:25.929Z,32.20
2019-06-26T15:01:52.776Z,31.60
2019-06-26T15:04:20.439Z,31.90
2019-06-26T15:06:47.719Z,32.20
2019-06-26T15:09:14.561Z,32.70
2019-06-26T15:11:41.763Z,32.50
2019-06-26T15:14:09.143Z,33.30
2019-06-26T15:16:36.009Z,33.20
2019-06-26T15:19:03.466Z,33.20
2019-06-26T15:21:30.291Z,32.40
2019-06-26T15:23:57.131Z,31.40
2019-06-26T15:26:24.221Z,31.70
2019-06-26T15:28:51.060Z,31.60
2019-06-26T15:31:17.919Z,31.10
2019-06-26T15:33:44.863Z,30.90
2019-06-26T15:36:11.699Z,30.50
2019-06-26T15:38:39.008Z,30.70
2019-06-26T15:41:05.892Z,31.80
2019-06-26T15:43:32.754Z,31.20
2019-06-26T15:45:59.778Z,31.10
2019-06-26T15:48:26.727Z,31.10
2019-06-26T15:50:53.587Z,32.40
2019-06-26T15:53:20.609Z,31.30
2019-06-26T15:55:47.449Z,29.40
2019-06-26T15:58:14.799Z,29.90
2019-06-26T16:00:41.636Z,30.90
2019-06-26T16:03:08.545Z,30.50
2019-06-26T16:05:35.820Z,31.10
2019-06-26T16:08:02.985Z,30.60
2019-06-26T16:10:30.083Z,30.60
2019-06-26T16:12:57.622Z,30.70
2019-06-26T16:15:24.694Z,30.70
2019-06-26T16:18:10.143Z,29.40
2019-06-26T16:20:37.711Z,29.80
2019-06-26T16:23:04.749Z,29.10
2019-06-26T16:25:31.631Z,28.70
2019-06-26T16:28:05.272Z,28.10
2019-06-26T16:30:27.547Z,28.40
2019-06-26T16:32:56.991Z,30.60
2019-06-26T16:35:24.348Z,29.50
2019-06-26T16:37:51.268Z,28.20
2019-06-26T16:40:18.267Z,29.20
2019-06-26T16:42:45.545Z,28.00
2019-06-26T16:45:12.825Z,27.90
2019-06-26T16:47:39.750Z,27.70
2019-06-26T16:50:07.709Z,28.10
2019-06-26T16:52:48.706Z,28.10
2019-06-26T16:55:06.974Z,27.40
2019-06-26T16:57:33.985Z,26.50
2019-06-26T17:00:09.413Z,26.80
2019-06-26T17:02:30.108Z,26.20
2019-06-26T17:04:56.952Z,26.10
2019-06-26T17:07:23.949Z,26.50
2019-06-26T17:09:51.104Z,26.20
2019-06-26T17:12:17.954Z,26.50
2019-06-26T17:14:45.536Z,25.20
2019-06-26T17:17:12.407Z,25.90
2019-06-26T17:19:39.623Z,25.50
2019-06-26T17:22:06.545Z,26.20
2019-06-26T17:24:34.612Z,27.20
2019-06-26T17:27:01.461Z,26.90
2019-06-26T17:29:28.301Z,27.40
2019-06-26T17:31:55.586Z,26.50
2019-06-26T17:34:22.417Z,27.20
2019-06-26T17:36:49.261Z,27.50
2019-06-26T17:39:16.254Z,27.20
2019-06-26T17:41:44.137Z,26.90
2019-06-26T17:44:11.216Z,27.40
2019-06-26T17:46:38.257Z,27.30
2019-06-26T17:49:05.407Z,26.50
2019-06-26T17:51:32.262Z,25.50
2019-06-26T17:53:59.402Z,26.70
2019-06-26T17:56:26.270Z,26.00
2019-06-26T17:58:53.102Z,26.70
2019-06-26T18:01:20.184Z,27.00
2019-06-26T18:03:47.040Z,26.70
2019-06-26T18:06:13.870Z,27.20
2019-06-26T18:08:41.232Z,26.30
2019-06-26T18:11:08.544Z,26.50
2019-06-26T18:13:36.519Z,28.60
2019-06-26T18:16:03.477Z,28.10
2019-06-26T18:18:30.819Z,27.90
2019-06-26T18:20:58.165Z,27.20
2019-06-26T18:23:37.098Z,26.60
2019-06-26T18:26:02.824Z,26.80
2019-06-26T18:28:22.852Z,26.90
2019-06-26T18:30:50.114Z,28.00
2019-06-26T18:33:16.997Z,27.40
2019-06-26T18:35:43.869Z,27.20
2019-06-26T18:38:11.231Z,27.80
2019-06-26T18:40:38.871Z,27.40
2019-06-26T18:43:06.328Z,27.80
2019-06-26T18:45:33.179Z,27.20
2019-06-26T18:48:01.627Z,27.50
2019-06-26T18:50:28.509Z,28.30
2019-06-26T18:52:55.709Z,27.90
2019-06-26T18:55:22.566Z,29.50
2019-06-26T18:57:49.643Z,30.00
2019-06-26T19:00:17.814Z,29.90
2019-06-26T19:02:44.889Z,30.00
2019-06-26T19:05:12.732Z,30.00
2019-06-26T19:07:39.948Z,29.40
2019-06-26T19:10:07.768Z,30.40
2019-06-26T19:12:37.473Z,31.00
2019-06-26T19:15:06.996Z,30.60
2019-06-26T19:17:34.288Z,31.70
2019-06-26T19:20:01.714Z,30.50
2019-06-26T19:22:28.879Z,30.40
2019-06-26T19:24:55.924Z,30.80
2019-06-26T19:27:23.138Z,31.40
2019-06-26T19:29:50.093Z,31.80
2019-06-26T19:32:17.343Z,32.20
2019-06-26T19:34:44.242Z,32.00
2019-06-26T19:37:11.289Z,32.40
2019-06-26T19:39:38.424Z,32.90
2019-06-26T19:42:05.260Z,32.50
2019-06-26T19:44:33.594Z,32.70
2019-06-26T19:47:00.504Z,33.20
2019-06-26T19:49:27.399Z,32.70
2019-06-26T19:51:54.264Z,32.90
2019-06-26T19:54:27.595Z,33.20
2019-06-26T19:56:50.229Z,33.20
2019-06-26T19:59:18.358Z,34.20
2019-06-26T20:01:45.216Z,34.10
2019-06-26T20:04:12.317Z,34.60
2019-06-26T20:06:39.192Z,35.00
2019-06-26T20:09:06.761Z,34.30
2019-06-26T20:11:33.903Z,34.30
2019-06-26T20:14:01.171Z,33.90
2019-06-26T20:16:28.039Z,34.40
2019-06-26T20:18:54.945Z,34.20
2019-06-26T20:21:22.156Z,34.00
2019-06-26T20:23:49.021Z,34.40
2019-06-26T20:26:16.288Z,34.70
2019-06-26T20:28:43.616Z,35.50
2019-06-26T20:31:10.442Z,34.80
2019-06-26T20:33:37.725Z,35.20
2019-06-26T20:36:05.044Z,35.70
2019-06-26T20:38:32.629Z,34.80
2019-06-26T20:40:59.486Z,38.50
2019-06-26T20:43:26.648Z,42.50
2019-06-26T20:45:53.888Z,37.70
2019-06-26T20:48:20.727Z,42.60
2019-06-26T20:50:47.893Z,40.40
2019-06-26T20:53:14.742Z,40.00
2019-06-26T20:55:41.696Z,41.60
2019-06-26T20:58:08.864Z,40.80
2019-06-26T21:00:35.701Z,39.30
2019-06-26T21:03:02.705Z,41.80
2019-06-26T21:05:29.638Z,41.40
2019-06-26T21:07:56.485Z,41.90
2019-06-26T21:10:23.315Z,40.90
2019-06-26T21:12:50.210Z,39.50
2019-06-26T21:15:18.545Z,39.70
2019-06-26T21:17:45.412Z,39.50
2019-06-26T21:20:13.559Z,39.70
2019-06-26T21:22:40.379Z,39.70
2019-06-26T21:25:18.129Z,39.30
2019-06-26T21:27:37.122Z,39.40
2019-06-26T21:30:07.082Z,39.60
2019-06-26T21:32:34.830Z,41.10
2019-06-26T21:35:02.476Z,40.30
2019-06-26T21:37:29.611Z,40.10
2019-06-26T21:39:56.482Z,39.80
2019-06-26T21:42:23.632Z,40.30
2019-06-26T21:44:50.486Z,40.60
2019-06-26T21:47:17.560Z,40.40
2019-06-26T21:49:44.523Z,41.80
2019-06-26T21:52:11.356Z,42.40
2019-06-26T21:54:38.590Z,43.40
2019-06-26T21:57:09.170Z,43.10
2019-06-26T21:59:36.048Z,44.60
2019-06-26T22:02:03.751Z,44.60
2019-06-26T22:04:30.919Z,44.80
2019-06-26T22:06:58.227Z,44.70
2019-06-26T22:09:25.191Z,45.10
2019-06-26T22:11:52.461Z,45.00
2019-06-26T22:14:19.311Z,44.60
2019-06-26T22:16:46.184Z,44.60
2019-06-26T22:19:13.450Z,44.90
2019-06-26T22:21:40.291Z,43.70
2019-06-26T22:24:07.384Z,43.60
2019-06-26T22:26:35.695Z,43.50
2019-06-26T22:29:02.871Z,43.70
2019-06-26T22:31:29.702Z,43.90
2019-06-26T22:33:56.643Z,44.10
2019-06-26T22:36:23.796Z,44.10
2019-06-26T22:38:50.624Z,43.70
2019-06-26T22:41:17.761Z,43.80
2019-06-26T22:43:44.841Z,43.60
2019-06-26T22:46:11.673Z,44.10
2019-06-26T22:48:38.982Z,43.60
2019-06-26T22:51:05.823Z,44.00
2019-06-26T22:53:34.224Z,44.10
2019-06-26T22:56:07.657Z,43.90
2019-06-26T22:58:30.566Z,44.10
2019-06-26T23:00:57.427Z,44.20
2019-06-26T23:03:24.491Z,44.40
2019-06-26T23:05:51.370Z,44.60
2019-06-26T23:08:18.373Z,44.80
2019-06-26T23:10:45.229Z,44.50
2019-06-26T23:13:12.086Z,44.40
2019-06-26T23:15:39.312Z,44.70
2019-06-26T23:18:06.218Z,44.40
2019-06-26T23:20:34.110Z,44.60
2019-06-26T23:23:01.036Z,45.00
2019-06-26T23:25:28.296Z,44.70
2019-06-26T23:27:55.120Z,44.90
2019-06-26T23:30:22.366Z,45.30
2019-06-26T23:32:49.239Z,45.70
2019-06-26T23:35:16.384Z,46.10
2019-06-26T23:37:43.249Z,46.70
2019-06-26T23:40:10.658Z,46.50
2019-06-26T23:42:37.492Z,46.50
2019-06-26T23:45:07.775Z,46.60
2019-06-26T23:47:34.841Z,47.10
2019-06-26T23:50:02.390Z,47.30
2019-06-26T23:52:29.543Z,47.50
2019-06-26T23:54:56.414Z,47.40
2019-06-26T23:57:23.615Z,47.50
2019-06-26T23:59:50.445Z,47.80
